Time;durP1;ratioP1;P1;durP2;ratioP2;P2;SDS_P1;SDS_P2;PMS_P1;PMS_P2;Temp;Humidity;BMP_temperature;BMP_pressure;BME280_temperature;BME280_humidity;BME280_pressure;Samples;Min_cycle;Max_cycle;Signal;HPM_P1;HPM_P2
2021/12/04 00:02:03;;;;;;;1.88;0.40;;;7.40;63.60;;;;;;6247604;28;20067;-80
2021/12/04 00:05:06;;;;;;;1.17;0.40;;;7.50;63.80;;;;;;6240567;28;20049;-80
2021/12/04 00:08:07;;;;;;;1.02;0.30;;;7.50;64.10;;;;;;6238856;28;20053;-80
2021/12/04 00:11:09;;;;;;;0.95;0.30;;;7.50;64.10;;;;;;6231197;28;20471;-79
2021/12/04 00:14:12;;;;;;;1.85;0.60;;;7.60;64.20;;;;;;6224386;28;20046;-81
2021/12/04 00:17:14;;;;;;;1.70;0.82;;;7.60;64.20;;;;;;6223765;28;20060;-80
2021/12/04 00:20:16;;;;;;;0.60;0.20;;;7.60;64.00;;;;;;6224282;28;20050;-80
2021/12/04 00:23:18;;;;;;;0.77;0.50;;;7.70;63.50;;;;;;6223758;28;20088;-80
2021/12/04 00:26:20;;;;;;;1.15;0.70;;;7.70;62.90;;;;;;6223662;28;20499;-81
2021/12/04 00:29:23;;;;;;;0.77;0.40;;;7.60;62.10;;;;;;6223725;28;20101;-80
2021/12/04 00:32:29;;;;;;;2.15;0.70;;;7.60;61.20;;;;;;6223929;28;20136;-79
2021/12/04 00:35:40;;;;;;;2.60;0.85;;;7.60;61.60;;;;;;6223457;28;20053;-79
2021/12/04 00:52:04;;;;;;;1.20;0.50;;;7.10;69.60;;;;;;6229492;28;20644;-80
2021/12/04 00:55:06;;;;;;;1.52;0.32;;;7.00;72.00;;;;;;6229139;28;20066;-81
2021/12/04 00:58:08;;;;;;;0.95;0.52;;;7.00;73.60;;;;;;6228799;28;20112;-80
2021/12/04 01:01:11;;;;;;;4.22;0.55;;;7.00;76.30;;;;;;6228783;28;20046;-80
2021/12/04 01:04:15;;;;;;;1.58;0.30;;;6.90;78.30;;;;;;6227661;28;20128;-81
2021/12/04 01:07:17;;;;;;;0.65;0.30;;;6.80;80.40;;;;;;6237976;28;20105;-81
2021/12/04 01:10:19;;;;;;;0.32;0.30;;;6.70;81.70;;;;;;6239309;28;20049;-81
2021/12/04 01:13:21;;;;;;;2.50;0.45;;;6.70;82.70;;;;;;6252092;28;20046;-81
2021/12/04 01:16:24;;;;;;;0.35;0.15;;;6.70;82.90;;;;;;6248983;28;20042;-80
2021/12/04 01:19:27;;;;;;;5.47;0.57;;;6.70;84.00;;;;;;6248522;28;20410;-80
2021/12/04 01:22:28;;;;;;;3.38;0.22;;;6.60;85.10;;;;;;6248888;28;20054;-80
2021/12/04 01:25:31;;;;;;;2.40;0.75;;;6.60;85.90;;;;;;6247955;28;20097;-81
2021/12/04 01:28:33;;;;;;;1.27;0.40;;;6.60;85.90;;;;;;6248400;28;20052;-79
2021/12/04 01:31:36;;;;;;;1.92;0.40;;;6.50;86.90;;;;;;6248403;28;20684;-80
2021/12/04 01:34:38;;;;;;;2.72;0.50;;;6.60;87.60;;;;;;6244853;28;20045;-80
2021/12/04 01:37:40;;;;;;;1.00;0.22;;;6.50;87.90;;;;;;6242208;28;20060;-81
2021/12/04 01:40:43;;;;;;;2.17;0.50;;;6.50;88.80;;;;;;6233722;28;20046;-80
2021/12/04 01:43:45;;;;;;;0.63;0.30;;;6.50;88.90;;;;;;6225544;28;20053;-81
2021/12/04 01:46:49;;;;;;;1.50;0.60;;;6.60;89.10;;;;;;6225737;28;20049;-80
2021/12/04 01:49:53;;;;;;;3.10;0.43;;;6.60;89.30;;;;;;6225312;28;20056;-80
2021/12/04 01:52:56;;;;;;;0.28;0.20;;;6.60;89.50;;;;;;6224627;28;20179;-79
2021/12/04 01:56:00;;;;;;;0.30;0.10;;;6.60;90.00;;;;;;6223246;28;20096;-78
2021/12/04 01:59:02;;;;;;;0.47;0.47;;;6.70;90.40;;;;;;6224304;28;20050;-79
2021/12/04 02:02:06;;;;;;;0.52;0.20;;;6.70;90.10;;;;;;6223226;28;20173;-80
2021/12/04 02:05:08;;;;;;;0.50;0.30;;;6.70;90.20;;;;;;6223540;28;20172;-81
2021/12/04 02:08:14;;;;;;;0.90;0.30;;;6.70;90.20;;;;;;6228369;28;20077;-79
2021/12/04 02:11:16;;;;;;;0.85;0.20;;;6.70;90.00;;;;;;6231967;28;20492;-79
2021/12/04 02:14:18;;;;;;;1.00;0.20;;;6.80;90.00;;;;;;6223879;28;20495;-79
2021/12/04 02:17:21;;;;;;;0.98;0.20;;;6.80;90.00;;;;;;6223367;28;20042;-81
2021/12/04 02:20:27;;;;;;;0.70;0.10;;;6.90;89.90;;;;;;6223607;28;20068;-80
2021/12/04 02:23:29;;;;;;;0.05;0.00;;;6.90;89.70;;;;;;6223728;28;20041;-81
2021/12/04 02:26:31;;;;;;;0.52;0.10;;;7.00;89.70;;;;;;6224733;28;20053;-79
2021/12/04 02:29:33;;;;;;;0.45;0.13;;;7.10;89.30;;;;;;6223595;28;20056;-79
2021/12/04 02:32:35;;;;;;;0.28;0.10;;;7.20;89.20;;;;;;6223411;28;20038;-80
2021/12/04 02:35:38;;;;;;;0.52;0.25;;;7.30;89.00;;;;;;6223438;28;20158;-80
2021/12/04 02:38:40;;;;;;;0.45;0.35;;;7.30;88.70;;;;;;6228400;28;20057;-80
2021/12/04 02:41:41;;;;;;;3.88;0.57;;;7.30;89.90;;;;;;6238967;28;20156;-80
2021/12/04 02:44:45;;;;;;;0.52;0.30;;;7.30;90.20;;;;;;6246931;28;20053;-79
2021/12/04 02:47:47;;;;;;;0.90;0.22;;;7.20;90.10;;;;;;6248047;28;20057;-80
2021/12/04 02:50:50;;;;;;;4.07;0.80;;;7.10;90.50;;;;;;6247552;28;20415;-80
2021/12/04 02:53:52;;;;;;;1.20;0.60;;;7.00;91.20;;;;;;6247491;28;20120;-80
2021/12/04 02:56:54;;;;;;;2.97;0.90;;;7.00;91.60;;;;;;6246750;28;20188;-80
2021/12/04 02:59:56;;;;;;;3.20;1.30;;;7.00;91.90;;;;;;6246967;28;20045;-79
2021/12/04 03:02:58;;;;;;;2.42;1.45;;;6.90;92.00;;;;;;6248168;28;20045;-80
2021/12/04 03:06:01;;;;;;;4.20;1.67;;;6.90;92.30;;;;;;6247091;28;20051;-81
2021/12/04 03:09:03;;;;;;;2.33;1.30;;;6.90;92.60;;;;;;6240210;28;20045;-80
2021/12/04 03:12:06;;;;;;;7.47;1.73;;;6.90;93.20;;;;;;6230640;28;20522;-81
2021/12/04 03:15:08;;;;;;;7.50;2.10;;;6.80;93.50;;;;;;6222984;28;20050;-82
2021/12/04 03:18:10;;;;;;;5.35;1.58;;;6.80;93.80;;;;;;6222749;28;20050;-81
2021/12/04 03:21:13;;;;;;;9.48;1.40;;;6.80;93.80;;;;;;6222130;28;20517;-81
2021/12/04 03:24:17;;;;;;;17.50;5.03;;;6.80;94.00;;;;;;6222444;28;20046;-81
2021/12/04 03:27:20;;;;;;;4.65;2.30;;;6.70;93.90;;;;;;6222527;28;20060;-80
2021/12/04 03:30:34;;;;;;;11.30;2.30;;;6.60;93.80;;;;;;6222770;28;20054;-81
2021/12/04 03:40:37;;;;;;;6.90;1.90;;;5.80;93.90;;;;;;6234334;28;20046;-82
2021/12/04 03:43:39;;;;;;;6.10;2.13;;;5.60;94.50;;;;;;6249859;28;20143;-82
2021/12/04 03:46:44;;;;;;;4.43;2.47;;;5.50;95.00;;;;;;6250196;28;20061;-82
2021/12/04 03:49:46;;;;;;;3.53;2.25;;;5.40;95.10;;;;;;6250011;28;20052;-80
2021/12/04 03:52:49;;;;;;;4.90;2.22;;;5.40;95.20;;;;;;6250077;28;20126;-80
2021/12/04 03:55:51;;;;;;;7.15;2.78;;;5.40;95.30;;;;;;6251909;22;20060;-83
2021/12/04 03:58:53;;;;;;;7.80;2.78;;;5.40;95.40;;;;;;6207980;28;20133;-83
2021/12/04 04:01:55;;;;;;;6.90;3.58;;;5.30;95.40;;;;;;6207689;28;20054;-82
2021/12/04 04:05:00;;;;;;;11.70;3.05;;;5.30;95.70;;;;;;6208665;28;20050;-83
2021/12/04 04:08:14;;;;;;;5.70;1.73;;;5.40;95.50;;;;;;6209159;28;20065;-82
2021/12/04 04:11:20;;;;;;;2.88;1.52;;;5.30;95.30;;;;;;6200413;28;20083;-80
2021/12/04 04:17:43;;;;;;;8.13;1.73;;;5.30;95.30;;;;;;6214357;28;20050;-82
2021/12/04 04:20:51;;;;;;;0.00;0.00;;;5.40;95.60;;;;;;6212788;28;20054;-81
2021/12/04 04:23:56;;;;;;;0.00;0.00;;;5.50;95.70;;;;;;6212051;28;20085;-82
2021/12/04 04:26:57;;;;;;;0.00;0.00;;;5.40;95.50;;;;;;6211586;28;20050;-82
2021/12/04 04:29:59;;;;;;;0.00;0.00;;;5.40;95.70;;;;;;6211089;28;20049;-82
2021/12/04 04:33:02;;;;;;;0.00;0.00;;;5.30;95.50;;;;;;6212819;28;20133;-85
2021/12/04 04:36:11;;;;;;;0.00;0.00;;;5.30;95.80;;;;;;6212846;28;20046;-82
2021/12/04 04:39:32;;;;;;;0.03;0.03;;;5.40;95.80;;;;;;6210630;28;20637;-83
2021/12/04 04:59:40;;;;;;;0.00;0.00;;;5.40;95.80;;;;;;6199323;28;20054;-84
2021/12/04 05:12:49;;;;;;;0.00;0.00;;;5.30;96.30;;;;;;6210347;28;20042;-82
2021/12/04 05:15:58;;;;;;;0.00;0.00;;;5.40;96.30;;;;;;6210142;28;20053;-82
2021/12/04 05:19:11;;;;;;;0.00;0.00;;;5.40;96.40;;;;;;6211519;28;20058;-82
2021/12/04 05:22:15;;;;;;;0.00;0.00;;;5.50;96.40;;;;;;6235364;28;20053;-81
2021/12/04 05:25:17;;;;;;;0.00;0.00;;;5.40;95.90;;;;;;6234582;28;20131;-81
2021/12/04 05:28:20;;;;;;;0.00;0.00;;;5.40;96.10;;;;;;6234284;28;20120;-82
2021/12/04 05:31:22;;;;;;;0.00;0.00;;;5.50;96.30;;;;;;6236440;28;20054;-85
2021/12/04 05:34:24;;;;;;;0.00;0.00;;;5.50;96.10;;;;;;6237694;28;20414;-82
2021/12/04 05:37:26;;;;;;;0.00;0.00;;;5.50;96.20;;;;;;6236877;28;20052;-82
2021/12/04 05:40:28;;;;;;;0.00;0.00;;;5.60;96.00;;;;;;6235258;28;20057;-82
2021/12/04 05:43:33;;;;;;;0.00;0.00;;;5.70;96.20;;;;;;6236115;28;20070;-82
2021/12/04 05:46:39;;;;;;;0.00;0.00;;;5.80;96.10;;;;;;6236941;28;20112;-82
2021/12/04 05:49:51;;;;;;;0.00;0.00;;;5.80;96.10;;;;;;6235958;28;20495;-82
2021/12/04 05:53:03;;;;;;;0.00;0.00;;;5.80;96.10;;;;;;6236069;28;20042;-82
2021/12/04 05:56:06;;;;;;;0.00;0.00;;;5.80;96.00;;;;;;6235198;28;20060;-83
2021/12/04 05:59:09;;;;;;;0.00;0.00;;;5.70;95.90;;;;;;6238253;28;20115;-82
2021/12/04 06:02:11;;;;;;;0.80;0.80;;;5.80;96.10;;;;;;6236877;28;20058;-84
2021/12/04 06:05:13;;;;;;;0.00;0.00;;;5.70;96.00;;;;;;6235866;28;20147;-81
2021/12/04 06:08:15;;;;;;;0.00;0.00;;;5.70;96.00;;;;;;6235977;28;20049;-82
2021/12/04 06:11:17;;;;;;;0.45;0.45;;;5.60;96.00;;;;;;6233371;28;20046;-83
2021/12/04 06:14:20;;;;;;;0.00;0.00;;;5.70;96.20;;;;;;6233854;28;20061;-84
2021/12/04 06:17:23;;;;;;;0.00;0.00;;;5.80;96.20;;;;;;6233384;28;20085;-84
2021/12/04 06:23:45;;;;;;;0.03;0.03;;;5.80;96.10;;;;;;6233438;28;20050;-84
2021/12/04 06:26:47;;;;;;;0.00;0.00;;;5.80;96.20;;;;;;6232216;28;20265;-83
2021/12/04 06:29:51;;;;;;;0.00;0.00;;;5.70;96.20;;;;;;6229359;28;20135;-84
2021/12/04 06:32:53;;;;;;;0.00;0.00;;;5.70;96.40;;;;;;6231003;28;20046;-84
2021/12/04 06:35:55;;;;;;;0.00;0.00;;;5.70;96.50;;;;;;6231119;28;20053;-85
2021/12/04 06:38:57;;;;;;;0.00;0.00;;;5.80;96.50;;;;;;6231555;28;20152;-82
2021/12/04 06:41:59;;;;;;;0.17;0.17;;;5.80;96.40;;;;;;6229564;28;20124;-83
2021/12/04 06:45:02;;;;;;;0.03;0.03;;;5.90;96.20;;;;;;6232867;28;20046;-83
2021/12/04 06:48:08;;;;;;;0.00;0.00;;;5.80;96.20;;;;;;6232130;28;20053;-80
2021/12/04 06:51:21;;;;;;;0.00;0.00;;;5.80;96.20;;;;;;6232731;28;20050;-83
2021/12/04 06:54:26;;;;;;;2.08;2.05;;;5.80;96.10;;;;;;6231617;28;20053;-83
2021/12/04 06:57:33;;;;;;;0.00;0.00;;;5.80;96.30;;;;;;6230414;28;20587;-84
2021/12/04 07:00:38;;;;;;;0.00;0.00;;;5.80;96.30;;;;;;6231165;28;20140;-84
2021/12/04 07:03:40;;;;;;;0.00;0.00;;;5.80;96.50;;;;;;6231920;28;20392;-81
2021/12/04 07:06:45;;;;;;;0.10;0.10;;;5.90;96.50;;;;;;6232433;28;20056;-84
2021/12/04 07:09:47;;;;;;;0.40;0.40;;;5.90;96.40;;;;;;6232105;28;20056;-83
2021/12/04 07:12:49;;;;;;;0.00;0.00;;;6.00;96.30;;;;;;6238360;28;20050;-81
2021/12/04 07:16:00;;;;;;;0.00;0.00;;;5.90;96.40;;;;;;6232431;28;20154;-83
2021/12/04 07:19:03;;;;;;;0.00;0.00;;;5.90;96.50;;;;;;6233905;28;20050;-83
2021/12/04 07:22:07;;;;;;;0.00;0.00;;;6.00;96.50;;;;;;6232624;28;20045;-81
2021/12/04 07:25:09;;;;;;;0.00;0.00;;;6.00;96.50;;;;;;6232858;28;20076;-83
2021/12/04 07:28:11;;;;;;;0.00;0.00;;;6.00;96.30;;;;;;6232835;28;20045;-84
2021/12/04 07:31:14;;;;;;;0.00;0.00;;;6.10;96.40;;;;;;6232682;28;20072;-81
2021/12/04 07:34:16;;;;;;;0.00;0.00;;;6.10;96.40;;;;;;6233464;28;20050;-80
2021/12/04 07:37:18;;;;;;;0.00;0.00;;;6.20;96.30;;;;;;6232587;28;20124;-80
2021/12/04 07:40:21;;;;;;;0.00;0.00;;;6.20;96.10;;;;;;6232883;28;20066;-81
2021/12/04 07:43:22;;;;;;;0.00;0.00;;;6.30;96.20;;;;;;6231250;28;20133;-81
2021/12/04 07:46:26;;;;;;;0.00;0.00;;;6.30;96.30;;;;;;6234735;28;20139;-81
2021/12/04 07:49:28;;;;;;;0.00;0.00;;;6.30;96.20;;;;;;6236751;28;20050;-81
2021/12/04 07:52:29;;;;;;;0.00;0.00;;;6.50;96.30;;;;;;6236896;28;20057;-81
2021/12/04 07:55:32;;;;;;;0.00;0.00;;;6.40;96.10;;;;;;6237413;28;20140;-81
2021/12/04 07:58:34;;;;;;;0.00;0.00;;;6.40;96.00;;;;;;6237742;28;20164;-81
2021/12/04 08:01:37;;;;;;;0.00;0.00;;;6.40;96.10;;;;;;6236176;28;20052;-81
2021/12/04 08:04:39;;;;;;;0.00;0.00;;;6.50;96.30;;;;;;6236989;28;20109;-81
2021/12/04 08:07:41;;;;;;;0.00;0.00;;;6.50;96.10;;;;;;6231482;28;20083;-81
2021/12/04 08:10:43;;;;;;;0.00;0.00;;;6.70;96.20;;;;;;6248531;28;20050;-81
2021/12/04 08:13:47;;;;;;;0.00;0.00;;;6.70;96.10;;;;;;6235817;28;20042;-80
2021/12/04 08:16:50;;;;;;;0.10;0.10;;;6.70;96.20;;;;;;6235915;28;20053;-83
2021/12/04 08:19:54;;;;;;;0.10;0.10;;;6.80;96.10;;;;;;6236486;28;20125;-81
2021/12/04 08:22:56;;;;;;;0.00;0.00;;;6.90;96.20;;;;;;6236215;28;20046;-80
2021/12/04 08:26:01;;;;;;;0.00;0.00;;;6.90;96.20;;;;;;6236617;28;20118;-81
2021/12/04 08:29:05;;;;;;;0.00;0.00;;;6.90;96.00;;;;;;6236868;28;20116;-81
2021/12/04 08:32:09;;;;;;;0.00;0.00;;;6.90;96.00;;;;;;6236772;28;20049;-84
2021/12/04 08:35:13;;;;;;;0.00;0.00;;;7.00;95.90;;;;;;6236228;28;20045;-81
2021/12/04 08:38:16;;;;;;;0.00;0.00;;;7.00;96.10;;;;;;6237270;28;20109;-81
2021/12/04 08:41:19;;;;;;;0.00;0.00;;;7.00;96.00;;;;;;6236519;28;20046;-80
2021/12/04 08:44:20;;;;;;;0.00;0.00;;;7.00;96.00;;;;;;6202813;28;20141;-82
2021/12/04 08:47:25;;;;;;;0.00;0.00;;;7.10;96.10;;;;;;6238275;28;20526;-79
2021/12/04 08:50:30;;;;;;;0.10;0.10;;;7.10;95.90;;;;;;6231876;28;20053;-79
2021/12/04 08:53:32;;;;;;;0.00;0.00;;;7.20;96.00;;;;;;6212387;28;20459;-79
2021/12/04 08:56:34;;;;;;;0.00;0.00;;;7.20;96.10;;;;;;6209642;28;20058;-78
2021/12/04 08:59:36;;;;;;;0.00;0.00;;;7.30;95.90;;;;;;6207439;28;20043;-80
2021/12/04 09:02:39;;;;;;;0.00;0.00;;;7.30;96.00;;;;;;6206719;28;20090;-79
2021/12/04 09:05:41;;;;;;;0.00;0.00;;;7.40;96.10;;;;;;6206829;28;20042;-79
2021/12/04 09:08:43;;;;;;;0.00;0.00;;;7.40;96.00;;;;;;6207308;28;20133;-80
2021/12/04 09:11:50;;;;;;;0.00;0.00;;;7.30;96.00;;;;;;6205320;28;20584;-80
2021/12/04 09:14:52;;;;;;;0.00;0.00;;;7.40;96.00;;;;;;6205468;28;20685;-81
2021/12/04 09:17:56;;;;;;;0.00;0.00;;;7.50;96.10;;;;;;6205724;28;20286;-82
2021/12/04 09:20:58;;;;;;;0.00;0.00;;;7.60;96.10;;;;;;6219921;28;20511;-80
2021/12/04 09:24:06;;;;;;;0.00;0.00;;;7.70;96.10;;;;;;6229590;28;20423;-81
2021/12/04 09:27:14;;;;;;;0.00;0.00;;;7.80;96.20;;;;;;6229782;28;20076;-78
2021/12/04 09:30:50;;;;;;;0.00;0.00;;;7.90;96.10;;;;;;6207937;28;20065;-79
2021/12/04 09:34:12;;;;;;;0.00;0.00;;;7.90;95.90;;;;;;6205711;28;20054;-79
2021/12/04 10:17:39;;;;;;;0.00;0.00;;;8.70;96.00;;;;;;6209518;28;20045;-79
2021/12/04 10:20:54;;;;;;;0.00;0.00;;;8.80;95.90;;;;;;6227164;28;20053;-78
2021/12/04 10:34:09;;;;;;;0.00;0.00;;;9.10;95.80;;;;;;6204237;28;20054;-80
2021/12/04 10:37:13;;;;;;;0.00;0.00;;;9.10;96.00;;;;;;6207229;28;20077;-81
2021/12/04 10:40:19;;;;;;;0.00;0.00;;;9.20;96.00;;;;;;6197158;28;20043;-80
2021/12/04 10:43:26;;;;;;;0.00;0.00;;;9.40;95.90;;;;;;6203646;28;20162;-80
2021/12/04 10:46:28;;;;;;;1.17;1.17;;;9.40;96.00;;;;;;6204369;28;20181;-81
2021/12/04 10:49:38;;;;;;;0.00;0.00;;;9.60;96.00;;;;;;6206417;28;20114;-80
2021/12/04 10:52:54;;;;;;;0.00;0.00;;;9.60;95.80;;;;;;6208670;28;20125;-80
2021/12/04 10:56:09;;;;;;;0.00;0.00;;;9.80;95.90;;;;;;6213057;28;20050;-80
2021/12/04 10:59:24;;;;;;;0.00;0.00;;;9.80;95.70;;;;;;6226504;28;20061;-80
2021/12/04 11:02:36;;;;;;;0.00;0.00;;;9.90;95.60;;;;;;6227495;28;20049;-80
2021/12/04 11:05:55;;;;;;;0.00;0.00;;;9.90;95.50;;;;;;6224434;28;20121;-80
2021/12/04 11:19:11;;;;;;;0.00;0.00;;;10.30;95.50;;;;;;6201190;28;20132;-80
2021/12/04 11:22:24;;;;;;;0.00;0.00;;;10.30;95.50;;;;;;6180604;28;20067;-80
2021/12/04 11:25:40;;;;;;;0.00;0.00;;;10.30;95.40;;;;;;6178168;28;20047;-80
2021/12/04 11:36:02;;;;;;;0.00;0.00;;;10.20;95.40;;;;;;6177722;28;20047;-80
2021/12/04 11:39:08;;;;;;;0.00;0.00;;;10.20;96.10;;;;;;6184049;28;20077;-78
2021/12/04 11:42:21;;;;;;;0.00;0.00;;;10.30;96.90;;;;;;6195167;28;20054;-79
2021/12/04 11:45:31;;;;;;;0.00;0.00;;;10.50;97.20;;;;;;6199570;28;20046;-79
2021/12/04 11:48:35;;;;;;;0.00;0.00;;;10.70;97.40;;;;;;6200067;28;20547;-82
2021/12/04 11:51:47;;;;;;;0.08;0.08;;;10.90;97.30;;;;;;6203713;28;20049;-80
2021/12/04 11:54:52;;;;;;;0.00;0.00;;;11.10;97.40;;;;;;6222672;28;20431;-79
2021/12/04 11:57:55;;;;;;;0.00;0.00;;;11.20;97.20;;;;;;6197355;28;20057;-81
2021/12/04 12:01:00;;;;;;;0.00;0.00;;;11.30;97.20;;;;;;6183506;28;20126;-81
2021/12/04 12:04:05;;;;;;;0.00;0.00;;;11.30;97.00;;;;;;6182550;28;20043;-81
2021/12/04 12:07:13;;;;;;;0.00;0.00;;;11.40;96.90;;;;;;6182039;28;20114;-80
2021/12/04 12:10:15;;;;;;;0.00;0.00;;;11.50;97.20;;;;;;6192225;28;20093;-80
2021/12/04 12:13:24;;;;;;;0.00;0.00;;;11.50;97.20;;;;;;6198333;28;20061;-79
2021/12/04 12:16:33;;;;;;;0.00;0.00;;;11.50;97.30;;;;;;6202872;28;20136;-80
2021/12/04 12:19:39;;;;;;;0.00;0.00;;;11.50;97.50;;;;;;6189278;28;20054;-79
2021/12/04 12:22:44;;;;;;;0.00;0.00;;;11.50;97.30;;;;;;6177584;28;20497;-81
2021/12/04 12:26:05;;;;;;;0.00;0.00;;;11.50;97.30;;;;;;6179096;28;20043;-79
2021/12/04 12:33:06;;;;;;;0.00;0.00;;;11.60;97.40;;;;;;6180229;28;20050;-80
2021/12/04 12:36:12;;;;;;;0.00;0.00;;;11.60;97.10;;;;;;6181934;28;20174;-80
2021/12/04 12:39:18;;;;;;;0.00;0.00;;;11.50;97.20;;;;;;6197351;28;20051;-81
2021/12/04 12:42:25;;;;;;;0.00;0.00;;;11.50;97.30;;;;;;6200268;28;20054;-80
2021/12/04 12:45:34;;;;;;;0.00;0.00;;;11.50;97.20;;;;;;6207893;28;20039;-79
2021/12/04 12:48:50;;;;;;;0.00;0.00;;;11.50;97.30;;;;;;6206425;28;20046;-80
2021/12/04 12:51:58;;;;;;;0.05;0.05;;;11.60;97.40;;;;;;6205790;28;20130;-78
2021/12/04 12:55:02;;;;;;;0.00;0.00;;;11.40;96.80;;;;;;6206783;28;20050;-80
2021/12/04 12:58:20;;;;;;;0.00;0.00;;;11.40;97.00;;;;;;6204643;28;20042;-79
2021/12/04 13:11:55;;;;;;;0.00;0.00;;;11.30;96.70;;;;;;6183412;28;20047;-79
2021/12/04 13:14:56;;;;;;;0.00;0.00;;;11.20;96.90;;;;;;6205115;28;20069;-80
2021/12/04 13:18:11;;;;;;;0.00;0.00;;;11.20;96.90;;;;;;6200604;28;22354;-80
2021/12/04 13:21:14;;;;;;;0.00;0.00;;;11.10;96.90;;;;;;6179997;28;20178;-79
2021/12/04 13:24:16;;;;;;;0.00;0.00;;;11.10;97.10;;;;;;6183820;28;20055;-78
2021/12/04 13:30:22;;;;;;;0.00;0.00;;;11.10;97.20;;;;;;6181583;28;20108;-79
2021/12/04 13:33:23;;;;;;;0.10;0.10;;;11.20;97.30;;;;;;6180175;28;20067;-79
2021/12/04 13:36:31;;;;;;;2.35;0.65;;;11.20;97.20;;;;;;6181816;28;20154;-80
2021/12/04 13:39:33;;;;;;;1.48;0.30;;;11.20;97.20;;;;;;6193473;28;20401;-78
2021/12/04 13:42:37;;;;;;;0.32;0.25;;;11.10;97.10;;;;;;6198365;28;20125;-80
2021/12/04 13:45:39;;;;;;;0.63;0.20;;;11.10;97.10;;;;;;6201873;28;20714;-80
2021/12/04 13:48:41;;;;;;;0.80;0.20;;;11.20;97.20;;;;;;6203053;28;20066;-79
2021/12/04 13:51:51;;;;;;;4.97;0.25;;;11.10;97.20;;;;;;6204494;28;20050;-79
2021/12/04 13:54:57;;;;;;;1.25;0.40;;;11.20;97.00;;;;;;6203605;28;20050;-80
2021/12/04 13:57:59;;;;;;;0.73;0.30;;;11.10;97.00;;;;;;6204988;28;20133;-79
2021/12/04 14:01:01;;;;;;;1.13;0.50;;;11.10;97.10;;;;;;6203738;28;20042;-79
2021/12/04 14:04:05;;;;;;;1.70;0.30;;;11.20;97.10;;;;;;6203652;28;20492;-79
2021/12/04 14:07:08;;;;;;;0.75;0.38;;;11.20;97.10;;;;;;6202868;28;20047;-80
2021/12/04 14:10:14;;;;;;;0.82;0.28;;;11.10;97.00;;;;;;6195917;28;20428;-79
2021/12/04 14:13:18;;;;;;;0.00;0.00;;;11.20;97.10;;;;;;6204190;28;20054;-79
2021/12/04 14:16:24;;;;;;;0.00;0.00;;;11.20;97.00;;;;;;6202890;28;20133;-79
2021/12/04 14:19:27;;;;;;;0.00;0.00;;;11.20;97.10;;;;;;6196795;28;20073;-81
2021/12/04 14:22:30;;;;;;;0.00;0.00;;;11.20;97.10;;;;;;6198733;28;20368;-80
2021/12/04 14:25:32;;;;;;;0.00;0.00;;;11.20;96.90;;;;;;6205727;28;20044;-81
2021/12/04 14:28:38;;;;;;;0.00;0.00;;;11.10;96.90;;;;;;6209198;28;20046;-80
2021/12/04 14:31:40;;;;;;;0.00;0.00;;;11.20;97.20;;;;;;6203213;28;20157;-80
2021/12/04 14:34:42;;;;;;;0.00;0.00;;;11.20;97.10;;;;;;6202681;28;20118;-80
2021/12/04 14:37:48;;;;;;;0.00;0.00;;;11.20;97.10;;;;;;6200800;28;20050;-81
2021/12/04 14:40:52;;;;;;;0.00;0.00;;;11.30;97.00;;;;;;6193139;28;20054;-80
2021/12/04 14:43:54;;;;;;;0.00;0.00;;;11.20;96.90;;;;;;6175212;28;20042;-80
2021/12/04 14:46:56;;;;;;;0.20;0.20;;;11.20;97.00;;;;;;6176364;28;20134;-79
2021/12/04 14:50:00;;;;;;;0.00;0.00;;;11.10;97.10;;;;;;6176867;28;20128;-80
2021/12/04 14:53:05;;;;;;;0.50;0.30;;;11.10;97.10;;;;;;6186146;28;20053;-80
2021/12/04 14:56:10;;;;;;;1.25;0.50;;;11.20;97.10;;;;;;6199657;28;20531;-79
2021/12/04 14:59:17;;;;;;;0.70;0.57;;;11.20;96.80;;;;;;6201011;28;20129;-80
2021/12/04 15:02:22;;;;;;;2.55;1.50;;;11.20;96.90;;;;;;6200734;28;20046;-80
2021/12/04 15:05:29;;;;;;;2.55;1.17;;;11.20;97.00;;;;;;6198944;28;20504;-80
2021/12/04 15:08:35;;;;;;;8.83;1.03;;;11.10;97.00;;;;;;6209974;28;20046;-79
2021/12/04 15:11:38;;;;;;;4.00;0.57;;;11.10;97.00;;;;;;6215052;28;20046;-79
2021/12/04 15:14:40;;;;;;;5.97;1.17;;;11.10;96.80;;;;;;6223988;28;20438;-79
2021/12/04 15:17:52;;;;;;;3.22;0.50;;;11.10;96.80;;;;;;6223139;28;20507;-80
2021/12/04 15:20:56;;;;;;;3.97;0.60;;;11.10;96.90;;;;;;6215896;28;20054;-81
2021/12/04 15:23:59;;;;;;;2.53;0.73;;;11.10;96.80;;;;;;6223443;28;20046;-80
2021/12/04 15:27:05;;;;;;;2.08;0.63;;;11.10;96.70;;;;;;6223275;28;20598;-80
2021/12/04 15:30:14;;;;;;;5.22;1.65;;;11.10;96.70;;;;;;6215704;28;20205;-80
2021/12/04 15:33:36;;;;;;;1.17;0.43;;;11.10;96.60;;;;;;6230217;28;20416;-80
2021/12/04 15:36:39;;;;;;;0.75;0.40;;;11.10;96.70;;;;;;6211110;28;20105;-80
2021/12/04 15:39:45;;;;;;;0.85;0.80;;;11.20;96.70;;;;;;6215907;28;20042;-80
2021/12/04 15:42:55;;;;;;;9.27;1.60;;;11.10;96.30;;;;;;6222126;28;20050;-80
2021/12/04 15:46:08;;;;;;;3.08;0.50;;;11.10;96.70;;;;;;6224250;28;20052;-80
2021/12/04 15:52:51;;;;;;;2.50;0.75;;;10.90;95.80;;;;;;6221852;28;20638;-80
2021/12/04 15:55:56;;;;;;;1.25;0.70;;;10.80;95.90;;;;;;6223110;28;20072;-80
2021/12/04 15:58:58;;;;;;;3.17;0.70;;;10.70;96.00;;;;;;6227548;28;20054;-81
2021/12/04 16:02:13;;;;;;;2.45;0.40;;;10.70;96.10;;;;;;6227001;28;20046;-84
2021/12/04 16:05:18;;;;;;;1.58;0.52;;;10.70;96.00;;;;;;6219867;28;20132;-83
2021/12/04 16:08:23;;;;;;;1.77;0.50;;;10.70;96.00;;;;;;6230546;28;20061;-83
2021/12/04 16:11:34;;;;;;;1.05;0.60;;;10.80;96.00;;;;;;6221999;28;20049;-82
2021/12/04 16:14:38;;;;;;;1.33;0.50;;;10.70;95.80;;;;;;6231043;28;20053;-83
2021/12/04 16:17:40;;;;;;;3.67;2.08;;;10.70;95.80;;;;;;6228118;28;20111;-83
2021/12/04 16:20:45;;;;;;;5.50;3.65;;;10.60;95.70;;;;;;6228185;28;20038;-82
2021/12/04 16:23:50;;;;;;;18.10;10.98;;;10.60;95.60;;;;;;6227057;28;20042;-84
2021/12/04 16:26:58;;;;;;;5.57;3.03;;;10.50;95.60;;;;;;6227828;28;20049;-84
2021/12/04 16:30:11;;;;;;;3.05;1.27;;;10.60;95.70;;;;;;6227641;28;20050;-83
2021/12/04 16:33:28;;;;;;;2.15;1.40;;;10.70;95.70;;;;;;6226031;28;20053;-84
2021/12/04 16:36:40;;;;;;;3.83;1.38;;;10.70;95.30;;;;;;6226645;28;20124;-82
2021/12/04 16:39:42;;;;;;;2.28;1.00;;;10.70;95.00;;;;;;6222696;28;20050;-82
2021/12/04 16:42:45;;;;;;;76.05;42.25;;;10.50;94.60;;;;;;6217326;28;20046;-83
2021/12/04 16:45:51;;;;;;;29.50;16.67;;;10.40;94.80;;;;;;6228430;28;20134;-83
2021/12/04 16:48:55;;;;;;;81.78;42.45;;;10.30;94.70;;;;;;6229335;28;20053;-84
2021/12/04 16:55:24;;;;;;;28.33;11.05;;;10.10;94.60;;;;;;6215957;28;20049;-83
2021/12/04 16:58:27;;;;;;;35.92;13.73;;;9.90;94.70;;;;;;6225855;28;20155;-82
2021/12/04 17:01:30;;;;;;;65.55;21.67;;;9.90;94.90;;;;;;6226953;28;20128;-82
2021/12/04 17:04:32;;;;;;;81.35;37.50;;;9.90;94.30;;;;;;6226167;28;20188;-81
2021/12/04 17:07:35;;;;;;;3.50;0.88;;;9.80;93.90;;;;;;6223709;28;20129;-82
2021/12/04 17:10:37;;;;;;;5.25;1.73;;;9.70;93.60;;;;;;6221628;28;20057;-84
2021/12/04 17:13:41;;;;;;;8.77;4.93;;;9.60;93.90;;;;;;6201430;28;20401;-85
2021/12/04 17:16:42;;;;;;;4.50;0.50;;;9.60;93.90;;;;;;6201136;28;20147;-84
2021/12/04 17:19:44;;;;;;;0.80;0.20;;;9.60;93.80;;;;;;6201841;28;20136;-84
2021/12/04 17:22:47;;;;;;;1.02;0.43;;;9.60;93.50;;;;;;6213138;28;20057;-82
2021/12/04 17:25:49;;;;;;;1.90;0.55;;;9.60;93.40;;;;;;6224970;28;20050;-82
2021/12/04 17:28:53;;;;;;;0.10;0.10;;;9.40;93.60;;;;;;6225971;28;20056;-83
2021/12/04 17:31:55;;;;;;;0.68;0.40;;;9.40;93.60;;;;;;6226589;28;20054;-82
2021/12/04 17:34:56;;;;;;;1.73;0.70;;;9.40;93.70;;;;;;6226824;28;20412;-82
2021/12/04 17:38:00;;;;;;;0.73;0.30;;;9.50;93.70;;;;;;6227226;28;20061;-84
2021/12/04 17:41:02;;;;;;;1.58;0.63;;;9.50;93.50;;;;;;6219258;28;20046;-84
2021/12/04 17:44:09;;;;;;;0.63;0.43;;;9.50;93.10;;;;;;6123682;28;20058;-83
2021/12/04 17:47:10;;;;;;;10.00;1.53;;;9.40;93.50;;;;;;6230798;28;20057;-82
2021/12/04 17:50:14;;;;;;;0.85;0.55;;;9.40;93.10;;;;;;6228994;28;20054;-82
2021/12/04 17:53:15;;;;;;;1.35;0.28;;;9.30;93.10;;;;;;6228113;28;20050;-83
2021/12/04 17:56:18;;;;;;;3.28;0.70;;;9.30;93.00;;;;;;6228347;28;20567;-80
2021/12/04 17:59:23;;;;;;;1.50;1.00;;;9.30;92.80;;;;;;6228115;28;20054;-82
2021/12/04 18:02:25;;;;;;;0.57;0.38;;;9.30;93.00;;;;;;6228173;28;20492;-82
2021/12/04 18:05:28;;;;;;;0.65;0.45;;;9.30;93.00;;;;;;6228220;28;20153;-83
2021/12/04 18:08:30;;;;;;;5.50;2.58;;;9.30;92.80;;;;;;6229664;28;20054;-82
2021/12/04 18:11:38;;;;;;;3.22;2.03;;;9.30;92.70;;;;;;6226266;28;20052;-81
2021/12/04 18:14:42;;;;;;;;;;;9.40;93.00;;;;;;6232284;28;20159;-80
2021/12/04 18:17:44;;;;;;;11.00;6.05;;;9.50;92.20;;;;;;6229260;28;19927;-81
2021/12/04 18:20:47;;;;;;;3.45;2.30;;;9.50;93.10;;;;;;6228185;28;20439;-82
2021/12/04 18:23:49;;;;;;;1.27;0.68;;;9.50;92.60;;;;;;6215128;28;20519;-83
2021/12/04 18:26:52;;;;;;;0.77;0.22;;;9.60;92.60;;;;;;6229523;28;20148;-82
2021/12/04 18:29:55;;;;;;;0.65;0.30;;;9.50;92.40;;;;;;6228988;28;20053;-83
2021/12/04 18:33:01;;;;;;;2.10;0.80;;;9.40;92.40;;;;;;6229678;28;20389;-83
2021/12/04 18:36:04;;;;;;;75.03;29.15;;;9.40;92.40;;;;;;6229578;28;20053;-83